sensor_id;sensor_type;location;lat;lon;timestamp;P1;durP1;ratioP1;P2;durP2;ratioP2
8327;SDS011;4201;48.754;8.864;2023-09-18T00:01:20;9.77;;;4.10;;
8327;SDS011;4201;48.754;8.864;2023-09-18T00:03:46;6.70;;;4.23;;
8327;SDS011;4201;48.754;8.864;2023-09-18T00:06:12;8.10;;;4.83;;
8327;SDS011;4201;48.754;8.864;2023-09-18T00:08:39;12.43;;;4.83;;
8327;SDS011;4201;48.754;8.864;2023-09-18T00:11:05;9.10;;;4.50;;
8327;SDS011;4201;48.754;8.864;2023-09-18T00:13:33;8.73;;;5.50;;
8327;SDS011;4201;48.754;8.864;2023-09-18T00:15:59;7.20;;;4.87;;
8327;SDS011;4201;48.754;8.864;2023-09-18T00:18:26;7.60;;;4.70;;
8327;SDS011;4201;48.754;8.864;2023-09-18T00:20:52;6.43;;;4.13;;
8327;SDS011;4201;48.754;8.864;2023-09-18T00:23:19;12.17;;;4.77;;
8327;SDS011;4201;48.754;8.864;2023-09-18T00:25:45;9.10;;;4.67;;
8327;SDS011;4201;48.754;8.864;2023-09-18T00:28:11;9.90;;;4.90;;
8327;SDS011;4201;48.754;8.864;2023-09-18T00:30:41;6.00;;;4.60;;
8327;SDS011;4201;48.754;8.864;2023-09-18T00:33:08;8.07;;;4.53;;
8327;SDS011;4201;48.754;8.864;2023-09-18T00:35:34;5.80;;;4.07;;
8327;SDS011;4201;48.754;8.864;2023-09-18T00:38:01;7.30;;;3.87;;
8327;SDS011;4201;48.754;8.864;2023-09-18T00:40:29;6.60;;;4.37;;
8327;SDS011;4201;48.754;8.864;2023-09-18T00:42:55;8.03;;;4.70;;
8327;SDS011;4201;48.754;8.864;2023-09-18T00:45:21;12.97;;;4.50;;
8327;SDS011;4201;48.754;8.864;2023-09-18T00:47:49;6.13;;;4.40;;
8327;SDS011;4201;48.754;8.864;2023-09-18T00:50:15;10.67;;;4.70;;
8327;SDS011;4201;48.754;8.864;2023-09-18T00:52:41;7.83;;;4.30;;
8327;SDS011;4201;48.754;8.864;2023-09-18T00:55:08;8.63;;;4.20;;
8327;SDS011;4201;48.754;8.864;2023-09-18T00:57:35;8.50;;;4.43;;
8327;SDS011;4201;48.754;8.864;2023-09-18T01:00:01;7.13;;;5.13;;
8327;SDS011;4201;48.754;8.864;2023-09-18T01:02:29;9.83;;;4.50;;
8327;SDS011;4201;48.754;8.864;2023-09-18T01:04:56;6.47;;;3.90;;
8327;SDS011;4201;48.754;8.864;2023-09-18T01:07:23;9.10;;;4.97;;
8327;SDS011;4201;48.754;8.864;2023-09-18T01:09:49;7.97;;;4.93;;
8327;SDS011;4201;48.754;8.864;2023-09-18T01:12:17;7.77;;;4.90;;
8327;SDS011;4201;48.754;8.864;2023-09-18T01:14:48;9.10;;;4.70;;
8327;SDS011;4201;48.754;8.864;2023-09-18T01:17:16;9.83;;;4.50;;
8327;SDS011;4201;48.754;8.864;2023-09-18T01:19:43;6.33;;;4.40;;
8327;SDS011;4201;48.754;8.864;2023-09-18T01:22:12;7.80;;;5.00;;
8327;SDS011;4201;48.754;8.864;2023-09-18T01:24:41;5.63;;;4.20;;
8327;SDS011;4201;48.754;8.864;2023-09-18T01:27:08;10.70;;;4.90;;
8327;SDS011;4201;48.754;8.864;2023-09-18T01:29:35;7.87;;;4.33;;
8327;SDS011;4201;48.754;8.864;2023-09-18T01:32:01;7.50;;;4.20;;
8327;SDS011;4201;48.754;8.864;2023-09-18T01:34:28;6.37;;;3.80;;
8327;SDS011;4201;48.754;8.864;2023-09-18T01:36:58;8.37;;;4.07;;
8327;SDS011;4201;48.754;8.864;2023-09-18T01:39:25;10.70;;;3.80;;
8327;SDS011;4201;48.754;8.864;2023-09-18T01:41:57;9.70;;;3.60;;
8327;SDS011;4201;48.754;8.864;2023-09-18T01:44:23;7.10;;;3.63;;
8327;SDS011;4201;48.754;8.864;2023-09-18T01:46:50;5.20;;;3.50;;
8327;SDS011;4201;48.754;8.864;2023-09-18T01:49:19;8.23;;;3.97;;
8327;SDS011;4201;48.754;8.864;2023-09-18T01:51:52;10.43;;;4.50;;
8327;SDS011;4201;48.754;8.864;2023-09-18T01:54:18;9.33;;;4.87;;
8327;SDS011;4201;48.754;8.864;2023-09-18T01:56:44;12.27;;;4.63;;
8327;SDS011;4201;48.754;8.864;2023-09-18T01:59:12;13.97;;;5.07;;
8327;SDS011;4201;48.754;8.864;2023-09-18T02:01:38;11.43;;;4.80;;
8327;SDS011;4201;48.754;8.864;2023-09-18T02:04:04;15.03;;;4.50;;
8327;SDS011;4201;48.754;8.864;2023-09-18T02:06:31;11.53;;;5.77;;
8327;SDS011;4201;48.754;8.864;2023-09-18T02:08:57;8.47;;;4.77;;
8327;SDS011;4201;48.754;8.864;2023-09-18T02:11:23;9.47;;;5.23;;
8327;SDS011;4201;48.754;8.864;2023-09-18T02:13:50;10.80;;;5.23;;
8327;SDS011;4201;48.754;8.864;2023-09-18T02:16:18;13.27;;;4.20;;
8327;SDS011;4201;48.754;8.864;2023-09-18T02:18:47;15.03;;;4.90;;
8327;SDS011;4201;48.754;8.864;2023-09-18T02:21:18;11.00;;;4.70;;
8327;SDS011;4201;48.754;8.864;2023-09-18T02:23:44;8.83;;;4.20;;
8327;SDS011;4201;48.754;8.864;2023-09-18T02:26:10;13.50;;;4.73;;
8327;SDS011;4201;48.754;8.864;2023-09-18T02:28:37;7.20;;;4.13;;
8327;SDS011;4201;48.754;8.864;2023-09-18T02:31:03;13.37;;;4.90;;
8327;SDS011;4201;48.754;8.864;2023-09-18T02:33:31;10.83;;;4.10;;
8327;SDS011;4201;48.754;8.864;2023-09-18T02:35:57;11.83;;;4.13;;
8327;SDS011;4201;48.754;8.864;2023-09-18T02:38:23;9.80;;;3.97;;
8327;SDS011;4201;48.754;8.864;2023-09-18T02:40:50;9.00;;;4.00;;
8327;SDS011;4201;48.754;8.864;2023-09-18T02:43:17;14.37;;;3.63;;
8327;SDS011;4201;48.754;8.864;2023-09-18T02:45:44;10.23;;;4.37;;
8327;SDS011;4201;48.754;8.864;2023-09-18T02:48:10;7.70;;;2.97;;
8327;SDS011;4201;48.754;8.864;2023-09-18T02:50:38;12.07;;;3.77;;
8327;SDS011;4201;48.754;8.864;2023-09-18T02:53:05;7.33;;;3.53;;
8327;SDS011;4201;48.754;8.864;2023-09-18T02:55:32;10.87;;;3.73;;
8327;SDS011;4201;48.754;8.864;2023-09-18T02:57:58;10.50;;;4.60;;
8327;SDS011;4201;48.754;8.864;2023-09-18T03:00:25;7.80;;;4.03;;
8327;SDS011;4201;48.754;8.864;2023-09-18T03:02:51;9.70;;;4.50;;
8327;SDS011;4201;48.754;8.864;2023-09-18T03:05:17;9.30;;;4.10;;
8327;SDS011;4201;48.754;8.864;2023-09-18T03:07:45;12.63;;;5.00;;
8327;SDS011;4201;48.754;8.864;2023-09-18T03:10:11;11.90;;;5.40;;
8327;SDS011;4201;48.754;8.864;2023-09-18T03:12:40;10.30;;;4.70;;
8327;SDS011;4201;48.754;8.864;2023-09-18T03:15:07;7.30;;;3.80;;
8327;SDS011;4201;48.754;8.864;2023-09-18T03:17:33;7.20;;;4.00;;
8327;SDS011;4201;48.754;8.864;2023-09-18T03:19:59;10.23;;;5.00;;
8327;SDS011;4201;48.754;8.864;2023-09-18T03:22:26;15.57;;;4.80;;
8327;SDS011;4201;48.754;8.864;2023-09-18T03:24:53;10.20;;;4.40;;
8327;SDS011;4201;48.754;8.864;2023-09-18T03:27:21;14.30;;;5.20;;
8327;SDS011;4201;48.754;8.864;2023-09-18T03:29:53;12.00;;;5.00;;
8327;SDS011;4201;48.754;8.864;2023-09-18T03:32:19;10.70;;;4.40;;
8327;SDS011;4201;48.754;8.864;2023-09-18T03:34:46;13.43;;;5.00;;
8327;SDS011;4201;48.754;8.864;2023-09-18T03:37:12;15.20;;;4.30;;
8327;SDS011;4201;48.754;8.864;2023-09-18T03:39:38;12.60;;;4.30;;
8327;SDS011;4201;48.754;8.864;2023-09-18T03:42:06;7.43;;;4.50;;
8327;SDS011;4201;48.754;8.864;2023-09-18T03:44:32;13.23;;;4.33;;
8327;SDS011;4201;48.754;8.864;2023-09-18T03:46:58;14.27;;;4.97;;
8327;SDS011;4201;48.754;8.864;2023-09-18T03:49:25;9.97;;;3.87;;
8327;SDS011;4201;48.754;8.864;2023-09-18T03:51:51;11.67;;;4.70;;
8327;SDS011;4201;48.754;8.864;2023-09-18T03:54:17;10.30;;;4.63;;
8327;SDS011;4201;48.754;8.864;2023-09-18T03:56:43;12.63;;;4.93;;
8327;SDS011;4201;48.754;8.864;2023-09-18T03:59:12;12.03;;;4.37;;
8327;SDS011;4201;48.754;8.864;2023-09-18T04:01:38;9.57;;;4.10;;
8327;SDS011;4201;48.754;8.864;2023-09-18T04:04:05;14.10;;;5.20;;
8327;SDS011;4201;48.754;8.864;2023-09-18T04:06:41;15.50;;;5.00;;
8327;SDS011;4201;48.754;8.864;2023-09-18T04:09:07;9.23;;;4.67;;
8327;SDS011;4201;48.754;8.864;2023-09-18T04:11:33;12.80;;;4.20;;
8327;SDS011;4201;48.754;8.864;2023-09-18T04:14:00;16.30;;;4.80;;
8327;SDS011;4201;48.754;8.864;2023-09-18T04:16:28;9.47;;;4.47;;
8327;SDS011;4201;48.754;8.864;2023-09-18T04:18:55;14.23;;;4.43;;
8327;SDS011;4201;48.754;8.864;2023-09-18T04:21:22;14.53;;;5.10;;
8327;SDS011;4201;48.754;8.864;2023-09-18T04:23:49;13.27;;;4.60;;
8327;SDS011;4201;48.754;8.864;2023-09-18T04:26:20;8.57;;;3.93;;
8327;SDS011;4201;48.754;8.864;2023-09-18T04:28:50;17.43;;;6.40;;
8327;SDS011;4201;48.754;8.864;2023-09-18T04:31:18;10.20;;;4.30;;
8327;SDS011;4201;48.754;8.864;2023-09-18T04:33:45;14.20;;;5.03;;
8327;SDS011;4201;48.754;8.864;2023-09-18T04:36:12;15.90;;;4.67;;
8327;SDS011;4201;48.754;8.864;2023-09-18T04:38:38;11.90;;;4.20;;
8327;SDS011;4201;48.754;8.864;2023-09-18T04:41:04;14.43;;;4.10;;
8327;SDS011;4201;48.754;8.864;2023-09-18T04:43:32;6.77;;;3.00;;
8327;SDS011;4201;48.754;8.864;2023-09-18T04:45:58;11.00;;;4.60;;
8327;SDS011;4201;48.754;8.864;2023-09-18T04:48:24;9.73;;;4.63;;
8327;SDS011;4201;48.754;8.864;2023-09-18T04:50:52;8.70;;;4.50;;
8327;SDS011;4201;48.754;8.864;2023-09-18T04:53:18;13.57;;;5.33;;
8327;SDS011;4201;48.754;8.864;2023-09-18T04:55:45;12.60;;;4.87;;
8327;SDS011;4201;48.754;8.864;2023-09-18T04:58:14;8.80;;;3.40;;
8327;SDS011;4201;48.754;8.864;2023-09-18T05:00:40;5.33;;;3.80;;
8327;SDS011;4201;48.754;8.864;2023-09-18T05:03:07;15.53;;;4.90;;
8327;SDS011;4201;48.754;8.864;2023-09-18T05:05:33;11.07;;;3.20;;
8327;SDS011;4201;48.754;8.864;2023-09-18T05:08:01;11.63;;;5.00;;
8327;SDS011;4201;48.754;8.864;2023-09-18T05:10:28;9.10;;;3.90;;
8327;SDS011;4201;48.754;8.864;2023-09-18T05:12:54;15.80;;;5.37;;
8327;SDS011;4201;48.754;8.864;2023-09-18T05:15:23;10.50;;;4.50;;
8327;SDS011;4201;48.754;8.864;2023-09-18T05:17:51;9.57;;;4.17;;
8327;SDS011;4201;48.754;8.864;2023-09-18T05:20:22;13.80;;;3.80;;
8327;SDS011;4201;48.754;8.864;2023-09-18T05:22:49;11.67;;;4.40;;
8327;SDS011;4201;48.754;8.864;2023-09-18T05:25:19;10.30;;;4.10;;
8327;SDS011;4201;48.754;8.864;2023-09-18T05:27:46;9.77;;;3.67;;
8327;SDS011;4201;48.754;8.864;2023-09-18T05:30:13;6.00;;;2.77;;
8327;SDS011;4201;48.754;8.864;2023-09-18T05:32:41;6.63;;;3.07;;
8327;SDS011;4201;48.754;8.864;2023-09-18T05:35:07;13.23;;;3.07;;
8327;SDS011;4201;48.754;8.864;2023-09-18T05:37:35;9.50;;;3.00;;
8327;SDS011;4201;48.754;8.864;2023-09-18T05:40:01;7.67;;;3.40;;
8327;SDS011;4201;48.754;8.864;2023-09-18T05:42:31;7.10;;;3.30;;
8327;SDS011;4201;48.754;8.864;2023-09-18T05:44:58;7.33;;;2.93;;
8327;SDS011;4201;48.754;8.864;2023-09-18T05:47:24;10.80;;;3.77;;
8327;SDS011;4201;48.754;8.864;2023-09-18T05:49:50;4.60;;;2.80;;
8327;SDS011;4201;48.754;8.864;2023-09-18T05:52:17;7.13;;;3.03;;
8327;SDS011;4201;48.754;8.864;2023-09-18T05:54:43;7.00;;;3.17;;
8327;SDS011;4201;48.754;8.864;2023-09-18T05:57:09;10.90;;;3.20;;
8327;SDS011;4201;48.754;8.864;2023-09-18T05:59:37;30.77;;;4.30;;
8327;SDS011;4201;48.754;8.864;2023-09-18T06:02:05;8.40;;;2.70;;
8327;SDS011;4201;48.754;8.864;2023-09-18T06:04:31;12.13;;;3.63;;
8327;SDS011;4201;48.754;8.864;2023-09-18T06:06:58;5.37;;;2.63;;
8327;SDS011;4201;48.754;8.864;2023-09-18T06:09:25;6.87;;;3.80;;
8327;SDS011;4201;48.754;8.864;2023-09-18T06:11:52;11.73;;;3.77;;
8327;SDS011;4201;48.754;8.864;2023-09-18T06:14:18;6.90;;;3.27;;
8327;SDS011;4201;48.754;8.864;2023-09-18T06:16:45;6.07;;;3.13;;
8327;SDS011;4201;48.754;8.864;2023-09-18T06:19:12;13.93;;;3.87;;
8327;SDS011;4201;48.754;8.864;2023-09-18T06:21:38;9.17;;;3.40;;
8327;SDS011;4201;48.754;8.864;2023-09-18T06:24:05;8.63;;;3.20;;
8327;SDS011;4201;48.754;8.864;2023-09-18T06:26:31;8.20;;;3.73;;
8327;SDS011;4201;48.754;8.864;2023-09-18T06:28:57;5.90;;;3.40;;
8327;SDS011;4201;48.754;8.864;2023-09-18T06:31:24;12.30;;;3.30;;
8327;SDS011;4201;48.754;8.864;2023-09-18T06:33:52;16.07;;;3.00;;
8327;SDS011;4201;48.754;8.864;2023-09-18T06:36:19;9.83;;;2.70;;
8327;SDS011;4201;48.754;8.864;2023-09-18T06:38:45;8.70;;;2.87;;
8327;SDS011;4201;48.754;8.864;2023-09-18T06:41:11;10.60;;;3.17;;
8327;SDS011;4201;48.754;8.864;2023-09-18T06:43:37;8.23;;;2.63;;
8327;SDS011;4201;48.754;8.864;2023-09-18T06:46:04;5.80;;;2.40;;
8327;SDS011;4201;48.754;8.864;2023-09-18T06:48:32;5.93;;;2.20;;
8327;SDS011;4201;48.754;8.864;2023-09-18T06:51:00;6.50;;;2.67;;
8327;SDS011;4201;48.754;8.864;2023-09-18T06:53:26;5.00;;;2.10;;
8327;SDS011;4201;48.754;8.864;2023-09-18T06:55:53;10.83;;;3.23;;
8327;SDS011;4201;48.754;8.864;2023-09-18T06:58:19;5.07;;;1.67;;
8327;SDS011;4201;48.754;8.864;2023-09-18T07:00:45;3.73;;;1.73;;
8327;SDS011;4201;48.754;8.864;2023-09-18T07:03:12;5.73;;;2.27;;
8327;SDS011;4201;48.754;8.864;2023-09-18T07:05:39;5.03;;;1.90;;
8327;SDS011;4201;48.754;8.864;2023-09-18T07:08:08;6.43;;;2.40;;
8327;SDS011;4201;48.754;8.864;2023-09-18T07:10:37;5.80;;;1.90;;
8327;SDS011;4201;48.754;8.864;2023-09-18T07:13:03;6.63;;;2.13;;
8327;SDS011;4201;48.754;8.864;2023-09-18T07:15:29;4.20;;;1.50;;
8327;SDS011;4201;48.754;8.864;2023-09-18T07:17:55;11.60;;;1.90;;
8327;SDS011;4201;48.754;8.864;2023-09-18T07:20:22;3.37;;;1.40;;
8327;SDS011;4201;48.754;8.864;2023-09-18T07:22:49;7.50;;;1.93;;
8327;SDS011;4201;48.754;8.864;2023-09-18T07:25:16;4.20;;;1.53;;
8327;SDS011;4201;48.754;8.864;2023-09-18T07:27:43;7.33;;;2.40;;
8327;SDS011;4201;48.754;8.864;2023-09-18T07:30:10;8.87;;;1.97;;
8327;SDS011;4201;48.754;8.864;2023-09-18T07:32:36;5.23;;;1.60;;
8327;SDS011;4201;48.754;8.864;2023-09-18T07:35:03;5.17;;;2.43;;
8327;SDS011;4201;48.754;8.864;2023-09-18T07:37:30;4.60;;;1.50;;
8327;SDS011;4201;48.754;8.864;2023-09-18T07:39:56;4.30;;;1.53;;
8327;SDS011;4201;48.754;8.864;2023-09-18T07:42:25;5.20;;;1.93;;
8327;SDS011;4201;48.754;8.864;2023-09-18T07:44:51;3.70;;;1.40;;
8327;SDS011;4201;48.754;8.864;2023-09-18T07:47:17;5.17;;;1.80;;
8327;SDS011;4201;48.754;8.864;2023-09-18T07:49:44;3.73;;;1.57;;
8327;SDS011;4201;48.754;8.864;2023-09-18T07:52:11;4.03;;;2.10;;
8327;SDS011;4201;48.754;8.864;2023-09-18T07:54:37;5.07;;;1.43;;
8327;SDS011;4201;48.754;8.864;2023-09-18T07:57:03;5.73;;;1.70;;
8327;SDS011;4201;48.754;8.864;2023-09-18T07:59:35;5.27;;;1.60;;
8327;SDS011;4201;48.754;8.864;2023-09-18T08:02:04;4.40;;;1.70;;
8327;SDS011;4201;48.754;8.864;2023-09-18T08:04:30;5.90;;;1.77;;
8327;SDS011;4201;48.754;8.864;2023-09-18T08:06:57;4.47;;;1.60;;
8327;SDS011;4201;48.754;8.864;2023-09-18T08:09:23;4.90;;;1.83;;
8327;SDS011;4201;48.754;8.864;2023-09-18T08:11:49;5.40;;;1.63;;
8327;SDS011;4201;48.754;8.864;2023-09-18T08:14:18;5.10;;;1.90;;
8327;SDS011;4201;48.754;8.864;2023-09-18T08:16:46;3.20;;;1.20;;
8327;SDS011;4201;48.754;8.864;2023-09-18T08:19:14;2.67;;;1.30;;
8327;SDS011;4201;48.754;8.864;2023-09-18T08:21:41;3.30;;;1.30;;
8327;SDS011;4201;48.754;8.864;2023-09-18T08:24:08;4.10;;;1.37;;
8327;SDS011;4201;48.754;8.864;2023-09-18T08:26:34;4.93;;;1.73;;
8327;SDS011;4201;48.754;8.864;2023-09-18T08:29:02;3.83;;;1.53;;
8327;SDS011;4201;48.754;8.864;2023-09-18T08:31:28;9.70;;;1.70;;
8327;SDS011;4201;48.754;8.864;2023-09-18T08:33:57;8.53;;;2.20;;
8327;SDS011;4201;48.754;8.864;2023-09-18T08:36:24;7.20;;;1.80;;
8327;SDS011;4201;48.754;8.864;2023-09-18T08:38:50;5.13;;;1.60;;
8327;SDS011;4201;48.754;8.864;2023-09-18T08:41:18;7.10;;;1.93;;
8327;SDS011;4201;48.754;8.864;2023-09-18T08:43:44;4.10;;;1.70;;
8327;SDS011;4201;48.754;8.864;2023-09-18T08:46:12;2.80;;;1.67;;
8327;SDS011;4201;48.754;8.864;2023-09-18T08:48:38;2.77;;;1.57;;
8327;SDS011;4201;48.754;8.864;2023-09-18T08:51:06;4.87;;;1.80;;
8327;SDS011;4201;48.754;8.864;2023-09-18T08:53:33;10.27;;;2.00;;
8327;SDS011;4201;48.754;8.864;2023-09-18T08:56:00;5.80;;;1.87;;
8327;SDS011;4201;48.754;8.864;2023-09-18T08:58:27;5.93;;;2.37;;
8327;SDS011;4201;48.754;8.864;2023-09-18T09:00:54;5.90;;;2.00;;
8327;SDS011;4201;48.754;8.864;2023-09-18T09:03:20;4.60;;;2.20;;
8327;SDS011;4201;48.754;8.864;2023-09-18T09:05:47;7.30;;;3.00;;
8327;SDS011;4201;48.754;8.864;2023-09-18T09:08:15;7.40;;;1.83;;
8327;SDS011;4201;48.754;8.864;2023-09-18T09:10:41;6.10;;;2.00;;
8327;SDS011;4201;48.754;8.864;2023-09-18T09:13:07;8.57;;;2.53;;
8327;SDS011;4201;48.754;8.864;2023-09-18T09:15:42;6.17;;;2.20;;
8327;SDS011;4201;48.754;8.864;2023-09-18T09:18:10;6.23;;;2.13;;
8327;SDS011;4201;48.754;8.864;2023-09-18T09:20:37;6.80;;;2.37;;
8327;SDS011;4201;48.754;8.864;2023-09-18T09:23:05;7.03;;;2.90;;
8327;SDS011;4201;48.754;8.864;2023-09-18T09:25:35;4.47;;;2.00;;
8327;SDS011;4201;48.754;8.864;2023-09-18T09:28:02;10.13;;;2.80;;
8327;SDS011;4201;48.754;8.864;2023-09-18T09:30:30;4.50;;;2.30;;
8327;SDS011;4201;48.754;8.864;2023-09-18T09:32:56;5.60;;;2.10;;
8327;SDS011;4201;48.754;8.864;2023-09-18T09:35:24;4.40;;;1.67;;
8327;SDS011;4201;48.754;8.864;2023-09-18T09:37:52;5.40;;;1.93;;
8327;SDS011;4201;48.754;8.864;2023-09-18T09:40:20;4.57;;;2.27;;
8327;SDS011;4201;48.754;8.864;2023-09-18T09:42:48;5.80;;;2.10;;
8327;SDS011;4201;48.754;8.864;2023-09-18T09:45:17;6.40;;;2.00;;
8327;SDS011;4201;48.754;8.864;2023-09-18T09:47:44;6.17;;;2.27;;
8327;SDS011;4201;48.754;8.864;2023-09-18T09:50:11;3.50;;;1.63;;
8327;SDS011;4201;48.754;8.864;2023-09-18T09:52:42;4.93;;;2.10;;
8327;SDS011;4201;48.754;8.864;2023-09-18T09:55:18;3.60;;;1.50;;
8327;SDS011;4201;48.754;8.864;2023-09-18T09:57:47;2.87;;;1.30;;
8327;SDS011;4201;48.754;8.864;2023-09-18T10:00:14;5.10;;;1.60;;
8327;SDS011;4201;48.754;8.864;2023-09-18T10:02:51;4.70;;;1.70;;
8327;SDS011;4201;48.754;8.864;2023-09-18T10:05:19;2.60;;;1.40;;
8327;SDS011;4201;48.754;8.864;2023-09-18T10:07:45;4.00;;;2.00;;
8327;SDS011;4201;48.754;8.864;2023-09-18T10:10:12;4.83;;;1.50;;
8327;SDS011;4201;48.754;8.864;2023-09-18T10:12:38;4.20;;;2.00;;
8327;SDS011;4201;48.754;8.864;2023-09-18T10:15:07;3.50;;;1.90;;
8327;SDS011;4201;48.754;8.864;2023-09-18T10:17:36;3.77;;;1.73;;
8327;SDS011;4201;48.754;8.864;2023-09-18T10:20:05;9.50;;;1.90;;
8327;SDS011;4201;48.754;8.864;2023-09-18T10:22:37;5.10;;;2.57;;
8327;SDS011;4201;48.754;8.864;2023-09-18T10:25:06;7.13;;;2.13;;
8327;SDS011;4201;48.754;8.864;2023-09-18T10:27:35;9.67;;;2.10;;
8327;SDS011;4201;48.754;8.864;2023-09-18T10:30:04;5.83;;;1.80;;
8327;SDS011;4201;48.754;8.864;2023-09-18T10:32:33;5.00;;;1.90;;
8327;SDS011;4201;48.754;8.864;2023-09-18T10:35:00;5.03;;;2.33;;
8327;SDS011;4201;48.754;8.864;2023-09-18T10:37:26;9.40;;;2.17;;
8327;SDS011;4201;48.754;8.864;2023-09-18T10:39:53;6.13;;;2.20;;
8327;SDS011;4201;48.754;8.864;2023-09-18T10:42:20;7.87;;;2.80;;
8327;SDS011;4201;48.754;8.864;2023-09-18T10:44:47;7.23;;;2.53;;
8327;SDS011;4201;48.754;8.864;2023-09-18T10:47:14;5.90;;;2.87;;
8327;SDS011;4201;48.754;8.864;2023-09-18T10:49:42;5.67;;;2.47;;
8327;SDS011;4201;48.754;8.864;2023-09-18T10:52:10;4.33;;;2.20;;
8327;SDS011;4201;48.754;8.864;2023-09-18T10:54:37;4.90;;;3.00;;
8327;SDS011;4201;48.754;8.864;2023-09-18T10:57:04;5.90;;;2.37;;
8327;SDS011;4201;48.754;8.864;2023-09-18T10:59:30;6.27;;;2.53;;
8327;SDS011;4201;48.754;8.864;2023-09-18T11:02:00;6.50;;;2.00;;
8327;SDS011;4201;48.754;8.864;2023-09-18T11:04:28;4.63;;;2.30;;
8327;SDS011;4201;48.754;8.864;2023-09-18T11:07:03;4.80;;;2.47;;
8327;SDS011;4201;48.754;8.864;2023-09-18T11:09:31;4.83;;;1.90;;
8327;SDS011;4201;48.754;8.864;2023-09-18T11:12:02;3.97;;;1.90;;
8327;SDS011;4201;48.754;8.864;2023-09-18T11:14:40;4.70;;;1.87;;
8327;SDS011;4201;48.754;8.864;2023-09-18T11:17:19;5.97;;;2.23;;
8327;SDS011;4201;48.754;8.864;2023-09-18T11:19:55;4.30;;;2.50;;
8327;SDS011;4201;48.754;8.864;2023-09-18T11:22:28;7.13;;;2.30;;
8327;SDS011;4201;48.754;8.864;2023-09-18T11:24:56;8.87;;;2.30;;
8327;SDS011;4201;48.754;8.864;2023-09-18T11:30:31;4.43;;;2.07;;
8327;SDS011;4201;48.754;8.864;2023-09-18T11:32:58;5.53;;;2.43;;
8327;SDS011;4201;48.754;8.864;2023-09-18T11:35:25;7.43;;;2.40;;
8327;SDS011;4201;48.754;8.864;2023-09-18T11:38:05;5.03;;;2.13;;
8327;SDS011;4201;48.754;8.864;2023-09-18T11:40:32;6.93;;;2.67;;
8327;SDS011;4201;48.754;8.864;2023-09-18T11:43:22;5.63;;;2.77;;
8327;SDS011;4201;48.754;8.864;2023-09-18T11:45:50;5.60;;;2.20;;
8327;SDS011;4201;48.754;8.864;2023-09-18T11:48:17;10.83;;;3.57;;
8327;SDS011;4201;48.754;8.864;2023-09-18T11:50:44;7.67;;;2.50;;
8327;SDS011;4201;48.754;8.864;2023-09-18T11:53:12;4.50;;;2.23;;
8327;SDS011;4201;48.754;8.864;2023-09-18T11:55:39;7.73;;;2.57;;
8327;SDS011;4201;48.754;8.864;2023-09-18T11:58:05;7.10;;;2.50;;
8327;SDS011;4201;48.754;8.864;2023-09-18T12:00:34;5.70;;;2.47;;
8327;SDS011;4201;48.754;8.864;2023-09-18T12:03:13;6.23;;;2.90;;
8327;SDS011;4201;48.754;8.864;2023-09-18T12:05:39;5.20;;;2.60;;
8327;SDS011;4201;48.754;8.864;2023-09-18T12:08:06;8.37;;;2.00;;
8327;SDS011;4201;48.754;8.864;2023-09-18T12:10:36;6.03;;;2.30;;
8327;SDS011;4201;48.754;8.864;2023-09-18T12:13:05;3.60;;;1.80;;
8327;SDS011;4201;48.754;8.864;2023-09-18T12:15:32;5.90;;;2.77;;
8327;SDS011;4201;48.754;8.864;2023-09-18T12:18:04;5.30;;;2.57;;
8327;SDS011;4201;48.754;8.864;2023-09-18T12:20:31;4.30;;;1.97;;
8327;SDS011;4201;48.754;8.864;2023-09-18T12:22:59;4.23;;;2.10;;
8327;SDS011;4201;48.754;8.864;2023-09-18T12:25:25;4.43;;;2.20;;
8327;SDS011;4201;48.754;8.864;2023-09-18T12:27:53;5.20;;;2.07;;
8327;SDS011;4201;48.754;8.864;2023-09-18T12:30:19;5.90;;;2.10;;
8327;SDS011;4201;48.754;8.864;2023-09-18T12:32:47;6.97;;;2.10;;
8327;SDS011;4201;48.754;8.864;2023-09-18T12:35:14;5.77;;;1.60;;
8327;SDS011;4201;48.754;8.864;2023-09-18T12:37:40;5.70;;;2.07;;
8327;SDS011;4201;48.754;8.864;2023-09-18T12:40:07;3.73;;;2.33;;
8327;SDS011;4201;48.754;8.864;2023-09-18T12:42:46;4.10;;;1.80;;
8327;SDS011;4201;48.754;8.864;2023-09-18T12:45:14;6.30;;;2.43;;
8327;SDS011;4201;48.754;8.864;2023-09-18T12:47:40;4.13;;;1.77;;
8327;SDS011;4201;48.754;8.864;2023-09-18T12:50:09;5.30;;;1.60;;
8327;SDS011;4201;48.754;8.864;2023-09-18T12:52:38;6.00;;;2.10;;
8327;SDS011;4201;48.754;8.864;2023-09-18T12:55:04;4.40;;;1.63;;
8327;SDS011;4201;48.754;8.864;2023-09-18T12:57:31;4.87;;;2.10;;
8327;SDS011;4201;48.754;8.864;2023-09-18T12:59:58;4.50;;;2.00;;
8327;SDS011;4201;48.754;8.864;2023-09-18T13:02:25;4.37;;;2.20;;
8327;SDS011;4201;48.754;8.864;2023-09-18T13:04:52;5.73;;;2.10;;
8327;SDS011;4201;48.754;8.864;2023-09-18T13:07:18;4.93;;;1.77;;
8327;SDS011;4201;48.754;8.864;2023-09-18T13:09:57;3.63;;;1.60;;
8327;SDS011;4201;48.754;8.864;2023-09-18T13:12:24;4.20;;;2.10;;
8327;SDS011;4201;48.754;8.864;2023-09-18T13:14:59;6.43;;;2.13;;
8327;SDS011;4201;48.754;8.864;2023-09-18T13:17:37;8.10;;;1.73;;
8327;SDS011;4201;48.754;8.864;2023-09-18T13:20:06;5.53;;;2.23;;
8327;SDS011;4201;48.754;8.864;2023-09-18T13:22:32;5.77;;;2.27;;
8327;SDS011;4201;48.754;8.864;2023-09-18T13:24:58;5.90;;;2.10;;
8327;SDS011;4201;48.754;8.864;2023-09-18T13:27:25;4.77;;;2.10;;
8327;SDS011;4201;48.754;8.864;2023-09-18T13:29:51;6.53;;;2.20;;
8327;SDS011;4201;48.754;8.864;2023-09-18T13:32:18;6.57;;;1.70;;
8327;SDS011;4201;48.754;8.864;2023-09-18T13:34:45;3.33;;;1.60;;
8327;SDS011;4201;48.754;8.864;2023-09-18T13:37:12;4.40;;;1.90;;
8327;SDS011;4201;48.754;8.864;2023-09-18T13:39:39;6.30;;;1.93;;
8327;SDS011;4201;48.754;8.864;2023-09-18T13:42:05;5.90;;;2.13;;
8327;SDS011;4201;48.754;8.864;2023-09-18T13:44:31;4.63;;;2.23;;
8327;SDS011;4201;48.754;8.864;2023-09-18T13:46:58;4.83;;;1.77;;
8327;SDS011;4201;48.754;8.864;2023-09-18T13:49:24;4.33;;;1.83;;
8327;SDS011;4201;48.754;8.864;2023-09-18T13:51:52;5.57;;;2.10;;
8327;SDS011;4201;48.754;8.864;2023-09-18T13:54:19;3.43;;;1.70;;
8327;SDS011;4201;48.754;8.864;2023-09-18T13:56:45;5.43;;;2.10;;
8327;SDS011;4201;48.754;8.864;2023-09-18T13:59:12;4.57;;;2.07;;
8327;SDS011;4201;48.754;8.864;2023-09-18T14:01:39;6.03;;;2.07;;
8327;SDS011;4201;48.754;8.864;2023-09-18T14:04:05;5.20;;;2.10;;
8327;SDS011;4201;48.754;8.864;2023-09-18T14:06:32;3.80;;;1.80;;
8327;SDS011;4201;48.754;8.864;2023-09-18T14:09:00;8.23;;;2.43;;
8327;SDS011;4201;48.754;8.864;2023-09-18T14:11:26;4.20;;;1.70;;
8327;SDS011;4201;48.754;8.864;2023-09-18T14:13:52;5.67;;;2.07;;
8327;SDS011;4201;48.754;8.864;2023-09-18T14:16:18;4.90;;;1.70;;
8327;SDS011;4201;48.754;8.864;2023-09-18T14:18:44;3.50;;;2.07;;
8327;SDS011;4201;48.754;8.864;2023-09-18T14:21:11;6.40;;;1.80;;
8327;SDS011;4201;48.754;8.864;2023-09-18T14:23:37;4.23;;;1.97;;
8327;SDS011;4201;48.754;8.864;2023-09-18T14:26:05;10.60;;;1.93;;
8327;SDS011;4201;48.754;8.864;2023-09-18T14:28:31;5.13;;;1.70;;
8327;SDS011;4201;48.754;8.864;2023-09-18T14:30:58;6.03;;;1.70;;
8327;SDS011;4201;48.754;8.864;2023-09-18T14:33:24;7.70;;;1.93;;
8327;SDS011;4201;48.754;8.864;2023-09-18T14:35:51;5.57;;;2.30;;
8327;SDS011;4201;48.754;8.864;2023-09-18T14:38:17;5.77;;;2.00;;
8327;SDS011;4201;48.754;8.864;2023-09-18T14:40:43;4.70;;;1.40;;
8327;SDS011;4201;48.754;8.864;2023-09-18T14:43:11;6.80;;;2.40;;
8327;SDS011;4201;48.754;8.864;2023-09-18T14:45:37;3.37;;;1.70;;
8327;SDS011;4201;48.754;8.864;2023-09-18T14:48:05;4.57;;;1.77;;
8327;SDS011;4201;48.754;8.864;2023-09-18T14:50:31;3.90;;;1.70;;
8327;SDS011;4201;48.754;8.864;2023-09-18T14:52:57;4.43;;;1.70;;
8327;SDS011;4201;48.754;8.864;2023-09-18T14:55:24;5.13;;;1.80;;
8327;SDS011;4201;48.754;8.864;2023-09-18T14:57:50;6.80;;;2.90;;
8327;SDS011;4201;48.754;8.864;2023-09-18T15:00:18;4.57;;;1.40;;
8327;SDS011;4201;48.754;8.864;2023-09-18T15:02:44;2.83;;;1.40;;
8327;SDS011;4201;48.754;8.864;2023-09-18T15:05:10;6.00;;;1.60;;
8327;SDS011;4201;48.754;8.864;2023-09-18T15:07:40;4.50;;;1.57;;
8327;SDS011;4201;48.754;8.864;2023-09-18T15:10:06;4.00;;;1.80;;
8327;SDS011;4201;48.754;8.864;2023-09-18T15:12:33;3.20;;;1.43;;
8327;SDS011;4201;48.754;8.864;2023-09-18T15:14:59;3.13;;;1.30;;
8327;SDS011;4201;48.754;8.864;2023-09-18T15:17:27;4.30;;;1.80;;